TimeMDT,TemperatureF,Dew PointF,Humidity,Sea Level PressureIn,VisibilityMPH,Wind Direction,Wind SpeedMPH,Gust SpeedMPH,PrecipitationIn,Events,Conditions,WindDirDegrees,DateUTC
12:15 AM,66.2,37.4,35,29.99,10.0,South,11.5,-,N/A,,Clear,190,2012-10-07 06:15:00
12:35 AM,66.2,37.4,35,29.99,10.0,South,11.5,-,N/A,,Clear,180,2012-10-07 06:35:00
12:55 AM,66.2,37.4,35,30.02,10.0,NNW,11.5,16.1,N/A,,Clear,330,2012-10-07 06:55:00
1:15 AM,62.6,39.2,42,30.03,10.0,NNW,11.5,16.1,N/A,,Clear,340,2012-10-07 07:15:00
1:35 AM,60.8,39.2,45,30.05,10.0,North,13.8,-,N/A,,Clear,360,2012-10-07 07:35:00
1:55 AM,59.0,39.2,48,30.06,10.0,North,11.5,-,N/A,,Clear,360,2012-10-07 07:55:00
2:15 AM,57.2,39.2,51,30.06,10.0,North,12.7,-,N/A,,Clear,10,2012-10-07 08:15:00
2:35 AM,57.2,39.2,51,30.06,10.0,North,11.5,-,N/A,,Clear,360,2012-10-07 08:35:00
2:55 AM,57.2,39.2,51,30.07,10.0,North,10.4,-,N/A,,Clear,360,2012-10-07 08:55:00
3:15 AM,55.4,39.2,54,30.07,10.0,North,11.5,-,N/A,,Clear,360,2012-10-07 09:15:00
3:35 AM,55.4,39.2,54,30.07,10.0,North,12.7,-,N/A,,Clear,10,2012-10-07 09:35:00
3:55 AM,55.4,39.2,54,30.08,10.0,North,10.4,-,N/A,,Clear,350,2012-10-07 09:55:00
4:15 AM,53.6,37.4,54,30.08,10.0,North,12.7,-,N/A,,Clear,350,2012-10-07 10:15:00
4:35 AM,53.6,37.4,54,30.08,10.0,North,10.4,-,N/A,,Clear,350,2012-10-07 10:35:00
4:55 AM,51.8,35.6,54,30.09,10.0,North,10.4,-,N/A,,Clear,350,2012-10-07 10:55:00
5:15 AM,50.0,35.6,58,30.09,10.0,North,6.9,-,N/A,,Clear,350,2012-10-07 11:15:00
5:55 AM,50.0,35.6,58,30.10,10.0,North,10.4,-,N/A,,Clear,10,2012-10-07 11:55:00
6:15 AM,50.0,35.6,58,30.11,10.0,North,11.5,-,N/A,,Clear,360,2012-10-07 12:15:00
6:35 AM,50.0,35.6,58,30.12,10.0,North,10.4,16.1,N/A,,Clear,10,2012-10-07 12:35:00
6:55 AM,50.0,35.6,58,30.13,10.0,North,10.4,-,N/A,,Clear,360,2012-10-07 12:55:00
7:15 AM,48.2,33.8,58,30.13,10.0,North,9.2,-,N/A,,Clear,360,2012-10-07 13:15:00
7:55 AM,50.0,35.6,58,30.14,10.0,NNW,6.9,-,N/A,,Clear,340,2012-10-07 13:55:00
8:15 AM,51.8,35.6,54,30.15,10.0,NNW,9.2,-,N/A,,Clear,330,2012-10-07 14:15:00
8:35 AM,51.8,35.6,54,30.17,10.0,NNW,8.1,-,N/A,,Clear,330,2012-10-07 14:35:00
8:55 AM,51.8,35.6,54,30.17,10.0,NNW,5.8,-,N/A,,Clear,330,2012-10-07 14:55:00
9:15 AM,53.6,35.6,51,30.18,10.0,NNW,6.9,-,N/A,,Clear,340,2012-10-07 15:15:00
9:35 AM,53.6,35.6,51,30.18,10.0,NNW,8.1,-,N/A,,Clear,330,2012-10-07 15:35:00
9:55 AM,53.6,35.6,51,30.18,10.0,NW,5.8,-,N/A,,Clear,320,2012-10-07 15:55:00
10:15 AM,53.6,35.6,51,30.18,10.0,West,4.6,-,N/A,,Clear,280,2012-10-07 16:15:00
10:35 AM,55.4,35.6,47,30.17,10.0,West,5.8,-,N/A,,Clear,280,2012-10-07 16:35:00
10:55 AM,55.4,35.6,47,30.17,10.0,WNW,3.5,-,N/A,,Clear,290,2012-10-07 16:55:00
11:15 AM,57.2,35.6,44,30.16,10.0,SW,6.9,-,N/A,,Clear,230,2012-10-07 17:15:00
11:35 AM,57.2,37.4,48,30.16,10.0,South,3.5,-,N/A,,Clear,180,2012-10-07 17:35:00
11:55 AM,57.2,37.4,48,30.16,10.0,SSE,4.6,-,N/A,,Clear,150,2012-10-07 17:55:00
12:15 PM,59.0,37.4,45,30.15,10.0,SSW,10.4,-,N/A,,Clear,210,2012-10-07 18:15:00
12:35 PM,59.0,37.4,45,30.14,10.0,South,6.9,-,N/A,,Clear,170,2012-10-07 18:35:00
12:55 PM,59.0,37.4,45,30.13,10.0,SSW,9.2,-,N/A,,Clear,200,2012-10-07 18:55:00
1:15 PM,60.8,39.2,45,30.12,10.0,SSW,5.8,-,N/A,,Clear,200,2012-10-07 19:15:00
1:35 PM,62.6,37.4,39,30.11,10.0,South,6.9,-,N/A,,Clear,190,2012-10-07 19:35:00
1:55 PM,62.6,37.4,39,30.10,10.0,SSE,6.9,-,N/A,,Clear,160,2012-10-07 19:55:00
2:15 PM,62.6,37.4,39,30.09,10.0,SSW,5.8,-,N/A,,Clear,210,2012-10-07 20:15:00
2:35 PM,62.6,39.2,42,30.08,10.0,SSW,6.9,-,N/A,,Clear,210,2012-10-07 20:35:00
2:55 PM,64.4,39.2,40,30.07,10.0,South,8.1,-,N/A,,Clear,180,2012-10-07 20:55:00
3:15 PM,64.4,37.4,37,30.07,10.0,South,6.9,-,N/A,,Clear,180,2012-10-07 21:15:00
3:35 PM,66.2,39.2,37,30.06,10.0,South,5.8,-,N/A,,Clear,170,2012-10-07 21:35:00
3:55 PM,66.2,39.2,37,30.05,10.0,SSW,6.9,-,N/A,,Clear,210,2012-10-07 21:55:00
4:15 PM,68.0,39.2,35,30.05,10.0,SSW,5.8,-,N/A,,Clear,200,2012-10-07 22:15:00
4:35 PM,68.0,37.4,33,30.04,10.0,South,4.6,-,N/A,,Clear,190,2012-10-07 22:35:00
4:55 PM,68.0,37.4,33,30.04,10.0,SW,5.8,-,N/A,,Clear,230,2012-10-07 22:55:00
5:15 PM,68.0,37.4,33,30.04,10.0,SSW,4.6,-,N/A,,Clear,210,2012-10-07 23:15:00
5:35 PM,68.0,37.4,33,30.04,10.0,SW,5.8,-,N/A,,Clear,230,2012-10-07 23:35:00
5:55 PM,68.0,37.4,33,30.04,10.0,SW,4.6,-,N/A,,Clear,230,2012-10-07 23:55:00
6:15 PM,66.2,37.4,35,30.05,10.0,Calm,Calm,-,N/A,,Clear,0,2012-10-08 00:15:00
6:55 PM,64.4,37.4,37,30.05,10.0,Calm,Calm,-,N/A,,Clear,0,2012-10-08 00:55:00
7:15 PM,62.6,37.4,39,30.05,10.0,Calm,Calm,-,N/A,,Clear,0,2012-10-08 01:15:00
7:35 PM,59.0,37.4,45,30.06,10.0,Calm,Calm,-,N/A,,Clear,0,2012-10-08 01:35:00
7:55 PM,60.8,37.4,42,30.07,10.0,Calm,Calm,-,N/A,,Clear,0,2012-10-08 01:55:00
8:15 PM,55.4,35.6,47,30.07,10.0,ENE,4.6,-,N/A,,Clear,60,2012-10-08 02:15:00
8:35 PM,55.4,35.6,47,30.07,10.0,Calm,Calm,-,N/A,,Clear,0,2012-10-08 02:35:00
8:55 PM,53.6,35.6,51,30.08,10.0,Calm,Calm,-,N/A,,Clear,0,2012-10-08 02:55:00
9:15 PM,53.6,35.6,51,30.08,10.0,WSW,4.6,-,N/A,,Clear,240,2012-10-08 03:15:00
9:35 PM,53.6,35.6,51,30.08,10.0,Calm,Calm,-,N/A,,Clear,0,2012-10-08 03:35:00
9:55 PM,50.0,35.6,58,30.08,10.0,NE,3.5,-,N/A,,Clear,50,2012-10-08 03:55:00
10:15 PM,55.4,35.6,47,30.08,10.0,North,3.5,-,N/A,,Clear,10,2012-10-08 04:15:00
10:35 PM,55.4,37.4,51,30.08,10.0,North,4.6,-,N/A,,Clear,350,2012-10-08 04:35:00
10:55 PM,53.6,37.4,54,30.08,10.0,Calm,Calm,-,N/A,,Clear,0,2012-10-08 04:55:00
11:15 PM,51.8,35.6,54,30.09,10.0,NNW,6.9,-,N/A,,Clear,330,2012-10-08 05:15:00
11:35 PM,53.6,37.4,54,30.09,10.0,NNW,8.1,-,N/A,,Clear,340,2012-10-08 05:35:00
11:55 PM,53.6,37.4,54,30.09,10.0,NNW,8.1,-,N/A,,Clear,340,2012-10-08 05:55:00